sensor_id;sensor_type;location;lat;lon;timestamp;P1;durP1;ratioP1;P2;durP2;ratioP2
68614;SDS011;55593;51.994;5.882;2023-11-22T00:00:23;22.17;;;13.32;;
68614;SDS011;55593;51.994;5.882;2023-11-22T00:02:52;16.38;;;12.48;;
68614;SDS011;55593;51.994;5.882;2023-11-22T00:05:21;20.60;;;12.63;;
68614;SDS011;55593;51.994;5.882;2023-11-22T00:07:52;16.98;;;12.18;;
68614;SDS011;55593;51.994;5.882;2023-11-22T00:10:22;20.48;;;14.45;;
68614;SDS011;55593;51.994;5.882;2023-11-22T00:12:52;14.77;;;11.02;;
68614;SDS011;55593;51.994;5.882;2023-11-22T00:15:21;20.85;;;13.68;;
68614;SDS011;55593;51.994;5.882;2023-11-22T00:17:51;19.67;;;13.75;;
68614;SDS011;55593;51.994;5.882;2023-11-22T00:20:23;15.32;;;12.30;;
68614;SDS011;55593;51.994;5.882;2023-11-22T00:22:55;18.55;;;13.70;;
68614;SDS011;55593;51.994;5.882;2023-11-22T00:25:24;18.38;;;13.13;;
68614;SDS011;55593;51.994;5.882;2023-11-22T00:27:53;16.20;;;12.20;;
68614;SDS011;55593;51.994;5.882;2023-11-22T00:30:23;17.73;;;13.15;;
68614;SDS011;55593;51.994;5.882;2023-11-22T00:32:52;17.52;;;13.25;;
68614;SDS011;55593;51.994;5.882;2023-11-22T00:35:22;16.17;;;12.25;;
68614;SDS011;55593;51.994;5.882;2023-11-22T00:37:51;22.02;;;12.48;;
68614;SDS011;55593;51.994;5.882;2023-11-22T00:40:23;18.60;;;13.38;;
68614;SDS011;55593;51.994;5.882;2023-11-22T00:42:52;20.40;;;14.00;;
68614;SDS011;55593;51.994;5.882;2023-11-22T00:45:21;19.02;;;13.07;;
68614;SDS011;55593;51.994;5.882;2023-11-22T00:47:51;19.23;;;13.20;;
68614;SDS011;55593;51.994;5.882;2023-11-22T00:50:20;17.55;;;13.32;;
68614;SDS011;55593;51.994;5.882;2023-11-22T00:52:49;15.80;;;11.88;;
68614;SDS011;55593;51.994;5.882;2023-11-22T00:55:18;15.50;;;10.73;;
68614;SDS011;55593;51.994;5.882;2023-11-22T00:57:49;22.35;;;13.02;;
68614;SDS011;55593;51.994;5.882;2023-11-22T01:00:19;18.38;;;12.48;;
68614;SDS011;55593;51.994;5.882;2023-11-22T01:02:48;21.65;;;13.75;;
68614;SDS011;55593;51.994;5.882;2023-11-22T01:05:17;23.77;;;13.75;;
68614;SDS011;55593;51.994;5.882;2023-11-22T01:07:47;22.90;;;12.27;;
68614;SDS011;55593;51.994;5.882;2023-11-22T01:10:16;18.08;;;12.65;;
68614;SDS011;55593;51.994;5.882;2023-11-22T01:12:47;15.20;;;10.88;;
68614;SDS011;55593;51.994;5.882;2023-11-22T01:15:19;15.48;;;11.27;;
68614;SDS011;55593;51.994;5.882;2023-11-22T01:17:48;20.05;;;11.65;;
68614;SDS011;55593;51.994;5.882;2023-11-22T01:20:18;14.98;;;11.25;;
68614;SDS011;55593;51.994;5.882;2023-11-22T01:22:48;18.65;;;11.82;;
68614;SDS011;55593;51.994;5.882;2023-11-22T01:25:18;15.32;;;11.80;;
68614;SDS011;55593;51.994;5.882;2023-11-22T01:27:50;14.57;;;10.75;;
68614;SDS011;55593;51.994;5.882;2023-11-22T01:30:20;16.42;;;12.23;;
68614;SDS011;55593;51.994;5.882;2023-11-22T01:32:49;17.85;;;11.55;;
68614;SDS011;55593;51.994;5.882;2023-11-22T01:35:18;16.63;;;12.38;;
68614;SDS011;55593;51.994;5.882;2023-11-22T01:37:47;16.48;;;12.00;;
68614;SDS011;55593;51.994;5.882;2023-11-22T01:40:17;16.98;;;12.02;;
68614;SDS011;55593;51.994;5.882;2023-11-22T01:42:51;19.05;;;10.70;;
68614;SDS011;55593;51.994;5.882;2023-11-22T01:45:20;16.13;;;11.75;;
68614;SDS011;55593;51.994;5.882;2023-11-22T01:47:49;24.42;;;12.00;;
68614;SDS011;55593;51.994;5.882;2023-11-22T01:50:19;18.48;;;11.85;;
68614;SDS011;55593;51.994;5.882;2023-11-22T01:52:48;14.27;;;10.52;;
68614;SDS011;55593;51.994;5.882;2023-11-22T01:55:17;15.80;;;11.77;;
68614;SDS011;55593;51.994;5.882;2023-11-22T01:57:46;17.98;;;11.65;;
68614;SDS011;55593;51.994;5.882;2023-11-22T02:00:18;17.35;;;12.13;;
68614;SDS011;55593;51.994;5.882;2023-11-22T02:02:49;15.70;;;10.73;;
68614;SDS011;55593;51.994;5.882;2023-11-22T02:05:19;16.10;;;11.40;;
68614;SDS011;55593;51.994;5.882;2023-11-22T02:07:48;17.15;;;12.23;;
68614;SDS011;55593;51.994;5.882;2023-11-22T02:10:18;19.42;;;11.57;;
68614;SDS011;55593;51.994;5.882;2023-11-22T02:12:47;17.35;;;11.48;;
68614;SDS011;55593;51.994;5.882;2023-11-22T02:15:19;14.50;;;10.98;;
68614;SDS011;55593;51.994;5.882;2023-11-22T02:17:48;16.80;;;12.18;;
68614;SDS011;55593;51.994;5.882;2023-11-22T02:20:17;16.00;;;11.38;;
68614;SDS011;55593;51.994;5.882;2023-11-22T02:22:47;16.17;;;11.32;;
68614;SDS011;55593;51.994;5.882;2023-11-22T02:25:18;13.93;;;10.00;;
68614;SDS011;55593;51.994;5.882;2023-11-22T02:27:47;16.23;;;10.95;;
68614;SDS011;55593;51.994;5.882;2023-11-22T02:30:17;19.25;;;12.60;;
68614;SDS011;55593;51.994;5.882;2023-11-22T02:32:47;15.93;;;11.70;;
68614;SDS011;55593;51.994;5.882;2023-11-22T02:35:16;20.95;;;12.45;;
68614;SDS011;55593;51.994;5.882;2023-11-22T02:37:46;16.50;;;11.18;;
68614;SDS011;55593;51.994;5.882;2023-11-22T02:40:19;18.33;;;11.77;;
68614;SDS011;55593;51.994;5.882;2023-11-22T02:42:50;17.77;;;12.10;;
68614;SDS011;55593;51.994;5.882;2023-11-22T02:45:26;16.42;;;11.70;;
68614;SDS011;55593;51.994;5.882;2023-11-22T02:47:56;16.55;;;11.23;;
68614;SDS011;55593;51.994;5.882;2023-11-22T02:50:27;17.55;;;11.60;;
68614;SDS011;55593;51.994;5.882;2023-11-22T02:52:57;16.58;;;11.20;;
68614;SDS011;55593;51.994;5.882;2023-11-22T02:55:30;16.02;;;11.20;;
68614;SDS011;55593;51.994;5.882;2023-11-22T02:57:59;18.27;;;12.68;;
68614;SDS011;55593;51.994;5.882;2023-11-22T03:00:28;17.30;;;12.10;;
68614;SDS011;55593;51.994;5.882;2023-11-22T03:03:00;20.20;;;12.23;;
68614;SDS011;55593;51.994;5.882;2023-11-22T03:05:30;17.77;;;12.93;;
68614;SDS011;55593;51.994;5.882;2023-11-22T03:08:00;15.70;;;10.95;;
68614;SDS011;55593;51.994;5.882;2023-11-22T03:10:31;18.40;;;12.15;;
68614;SDS011;55593;51.994;5.882;2023-11-22T03:13:01;17.45;;;10.98;;
68614;SDS011;55593;51.994;5.882;2023-11-22T03:15:31;19.05;;;12.20;;
68614;SDS011;55593;51.994;5.882;2023-11-22T03:18:00;17.52;;;10.80;;
68614;SDS011;55593;51.994;5.882;2023-11-22T03:20:32;17.40;;;12.27;;
68614;SDS011;55593;51.994;5.882;2023-11-22T03:23:03;16.70;;;11.93;;
68614;SDS011;55593;51.994;5.882;2023-11-22T03:25:34;18.58;;;11.30;;
68614;SDS011;55593;51.994;5.882;2023-11-22T03:28:04;16.67;;;11.82;;
68614;SDS011;55593;51.994;5.882;2023-11-22T03:30:34;18.42;;;12.43;;
68614;SDS011;55593;51.994;5.882;2023-11-22T03:33:03;16.27;;;11.23;;
68614;SDS011;55593;51.994;5.882;2023-11-22T03:35:32;18.23;;;11.52;;
68614;SDS011;55593;51.994;5.882;2023-11-22T03:38:01;16.55;;;11.35;;
68614;SDS011;55593;51.994;5.882;2023-11-22T03:40:30;19.38;;;10.88;;
68614;SDS011;55593;51.994;5.882;2023-11-22T03:43:02;18.23;;;12.23;;
68614;SDS011;55593;51.994;5.882;2023-11-22T03:45:31;18.85;;;11.55;;
68614;SDS011;55593;51.994;5.882;2023-11-22T03:48:01;15.15;;;10.43;;
68614;SDS011;55593;51.994;5.882;2023-11-22T03:50:30;18.45;;;11.57;;
68614;SDS011;55593;51.994;5.882;2023-11-22T03:52:59;17.02;;;11.27;;
68614;SDS011;55593;51.994;5.882;2023-11-22T03:55:28;16.45;;;11.52;;
68614;SDS011;55593;51.994;5.882;2023-11-22T03:57:57;17.40;;;12.10;;
68614;SDS011;55593;51.994;5.882;2023-11-22T04:00:29;18.08;;;11.70;;
68614;SDS011;55593;51.994;5.882;2023-11-22T04:02:58;18.13;;;12.02;;
68614;SDS011;55593;51.994;5.882;2023-11-22T04:05:28;16.08;;;11.05;;
68614;SDS011;55593;51.994;5.882;2023-11-22T04:07:57;16.92;;;11.20;;
68614;SDS011;55593;51.994;5.882;2023-11-22T04:10:27;16.90;;;11.75;;
68614;SDS011;55593;51.994;5.882;2023-11-22T04:12:56;20.55;;;11.40;;
68614;SDS011;55593;51.994;5.882;2023-11-22T04:15:25;19.55;;;11.38;;
68614;SDS011;55593;51.994;5.882;2023-11-22T04:17:57;19.13;;;11.65;;
68614;SDS011;55593;51.994;5.882;2023-11-22T04:20:26;15.57;;;10.80;;
68614;SDS011;55593;51.994;5.882;2023-11-22T04:22:55;19.77;;;11.82;;
68614;SDS011;55593;51.994;5.882;2023-11-22T04:25:24;19.77;;;11.18;;
68614;SDS011;55593;51.994;5.882;2023-11-22T04:27:53;19.23;;;12.05;;
68614;SDS011;55593;51.994;5.882;2023-11-22T04:30:22;18.05;;;11.48;;
68614;SDS011;55593;51.994;5.882;2023-11-22T04:32:52;19.95;;;11.88;;
68614;SDS011;55593;51.994;5.882;2023-11-22T04:35:23;16.17;;;11.65;;
68614;SDS011;55593;51.994;5.882;2023-11-22T04:37:53;17.17;;;10.63;;
68614;SDS011;55593;51.994;5.882;2023-11-22T04:40:24;17.98;;;11.90;;
68614;SDS011;55593;51.994;5.882;2023-11-22T04:42:53;15.85;;;10.82;;
68614;SDS011;55593;51.994;5.882;2023-11-22T04:45:22;15.77;;;10.70;;
68614;SDS011;55593;51.994;5.882;2023-11-22T04:47:51;17.42;;;11.73;;
68614;SDS011;55593;51.994;5.882;2023-11-22T04:50:25;17.52;;;11.48;;
68614;SDS011;55593;51.994;5.882;2023-11-22T04:52:54;17.80;;;11.10;;
68614;SDS011;55593;51.994;5.882;2023-11-22T04:55:23;15.85;;;11.07;;
68614;SDS011;55593;51.994;5.882;2023-11-22T04:57:52;21.55;;;12.82;;
68614;SDS011;55593;51.994;5.882;2023-11-22T05:00:21;17.27;;;11.75;;
68614;SDS011;55593;51.994;5.882;2023-11-22T05:02:51;18.60;;;12.35;;
68614;SDS011;55593;51.994;5.882;2023-11-22T05:05:20;18.98;;;11.18;;
68614;SDS011;55593;51.994;5.882;2023-11-22T05:07:52;21.25;;;12.80;;
68614;SDS011;55593;51.994;5.882;2023-11-22T05:10:21;16.67;;;10.68;;
68614;SDS011;55593;51.994;5.882;2023-11-22T05:12:50;18.42;;;11.15;;
68614;SDS011;55593;51.994;5.882;2023-11-22T05:15:25;18.60;;;10.25;;
68614;SDS011;55593;51.994;5.882;2023-11-22T05:17:54;19.38;;;13.35;;
68614;SDS011;55593;51.994;5.882;2023-11-22T05:20:23;16.80;;;11.65;;
68614;SDS011;55593;51.994;5.882;2023-11-22T05:22:55;21.75;;;12.35;;
68614;SDS011;55593;51.994;5.882;2023-11-22T05:25:24;20.65;;;12.25;;
68614;SDS011;55593;51.994;5.882;2023-11-22T05:27:53;17.35;;;11.93;;
68614;SDS011;55593;51.994;5.882;2023-11-22T05:30:22;16.52;;;11.38;;
68614;SDS011;55593;51.994;5.882;2023-11-22T05:32:52;14.02;;;10.23;;
68614;SDS011;55593;51.994;5.882;2023-11-22T05:35:21;19.58;;;11.60;;
68614;SDS011;55593;51.994;5.882;2023-11-22T05:37:50;20.48;;;13.02;;
68614;SDS011;55593;51.994;5.882;2023-11-22T05:40:21;17.75;;;11.75;;
68614;SDS011;55593;51.994;5.882;2023-11-22T05:42:51;18.52;;;12.85;;
68614;SDS011;55593;51.994;5.882;2023-11-22T05:45:20;15.25;;;10.98;;
68614;SDS011;55593;51.994;5.882;2023-11-22T05:47:49;19.50;;;12.60;;
68614;SDS011;55593;51.994;5.882;2023-11-22T05:50:18;18.95;;;12.27;;
68614;SDS011;55593;51.994;5.882;2023-11-22T05:52:47;19.73;;;13.75;;
68614;SDS011;55593;51.994;5.882;2023-11-22T05:55:17;18.85;;;12.88;;
68614;SDS011;55593;51.994;5.882;2023-11-22T05:57:49;22.92;;;12.57;;
68614;SDS011;55593;51.994;5.882;2023-11-22T06:00:18;18.33;;;12.40;;
68614;SDS011;55593;51.994;5.882;2023-11-22T06:02:47;19.67;;;11.85;;
68614;SDS011;55593;51.994;5.882;2023-11-22T06:05:17;20.35;;;12.73;;
68614;SDS011;55593;51.994;5.882;2023-11-22T06:07:46;19.90;;;12.30;;
68614;SDS011;55593;51.994;5.882;2023-11-22T06:10:16;19.45;;;13.30;;
68614;SDS011;55593;51.994;5.882;2023-11-22T06:12:45;19.63;;;12.98;;
68614;SDS011;55593;51.994;5.882;2023-11-22T06:15:14;18.85;;;12.13;;
68614;SDS011;55593;51.994;5.882;2023-11-22T06:17:44;24.13;;;15.40;;
68614;SDS011;55593;51.994;5.882;2023-11-22T06:20:14;22.40;;;13.82;;
68614;SDS011;55593;51.994;5.882;2023-11-22T06:22:44;19.17;;;13.35;;
68614;SDS011;55593;51.994;5.882;2023-11-22T06:25:13;17.50;;;11.98;;
68614;SDS011;55593;51.994;5.882;2023-11-22T06:27:42;22.38;;;14.82;;
68614;SDS011;55593;51.994;5.882;2023-11-22T06:30:11;19.23;;;14.15;;
68614;SDS011;55593;51.994;5.882;2023-11-22T06:32:43;20.60;;;14.27;;
68614;SDS011;55593;51.994;5.882;2023-11-22T06:35:12;20.63;;;13.02;;
68614;SDS011;55593;51.994;5.882;2023-11-22T06:37:42;21.40;;;13.40;;
68614;SDS011;55593;51.994;5.882;2023-11-22T06:40:11;19.08;;;13.23;;
68614;SDS011;55593;51.994;5.882;2023-11-22T06:42:42;21.75;;;14.20;;
68614;SDS011;55593;51.994;5.882;2023-11-22T06:45:12;21.10;;;14.18;;
68614;SDS011;55593;51.994;5.882;2023-11-22T06:47:44;23.73;;;15.40;;
68614;SDS011;55593;51.994;5.882;2023-11-22T06:50:15;22.38;;;15.20;;
68614;SDS011;55593;51.994;5.882;2023-11-22T06:52:45;19.40;;;14.55;;
68614;SDS011;55593;51.994;5.882;2023-11-22T06:55:15;20.02;;;13.05;;
68614;SDS011;55593;51.994;5.882;2023-11-22T06:57:45;21.25;;;13.88;;
68614;SDS011;55593;51.994;5.882;2023-11-22T07:00:14;21.00;;;13.45;;
68614;SDS011;55593;51.994;5.882;2023-11-22T07:02:48;22.67;;;13.98;;
68614;SDS011;55593;51.994;5.882;2023-11-22T07:05:18;22.13;;;13.90;;
68614;SDS011;55593;51.994;5.882;2023-11-22T07:07:47;25.00;;;14.13;;
68614;SDS011;55593;51.994;5.882;2023-11-22T07:10:16;24.13;;;14.57;;
68614;SDS011;55593;51.994;5.882;2023-11-22T07:12:47;26.40;;;15.52;;
68614;SDS011;55593;51.994;5.882;2023-11-22T07:15:16;21.40;;;14.40;;
68614;SDS011;55593;51.994;5.882;2023-11-22T07:17:49;19.65;;;13.32;;
68614;SDS011;55593;51.994;5.882;2023-11-22T07:20:18;23.17;;;15.32;;
68614;SDS011;55593;51.994;5.882;2023-11-22T07:22:49;23.25;;;14.50;;
68614;SDS011;55593;51.994;5.882;2023-11-22T07:25:21;18.52;;;12.60;;
68614;SDS011;55593;51.994;5.882;2023-11-22T07:27:51;23.15;;;14.85;;
68614;SDS011;55593;51.994;5.882;2023-11-22T07:30:20;19.63;;;13.70;;
68614;SDS011;55593;51.994;5.882;2023-11-22T07:32:52;20.80;;;13.85;;
68614;SDS011;55593;51.994;5.882;2023-11-22T07:35:21;26.55;;;15.70;;
68614;SDS011;55593;51.994;5.882;2023-11-22T07:37:51;21.80;;;15.85;;
68614;SDS011;55593;51.994;5.882;2023-11-22T07:40:20;23.77;;;14.05;;
68614;SDS011;55593;51.994;5.882;2023-11-22T07:42:50;18.45;;;12.90;;
68614;SDS011;55593;51.994;5.882;2023-11-22T07:45:20;26.27;;;14.05;;
68614;SDS011;55593;51.994;5.882;2023-11-22T07:47:52;22.35;;;11.82;;
68614;SDS011;55593;51.994;5.882;2023-11-22T07:50:23;26.52;;;15.80;;
68614;SDS011;55593;51.994;5.882;2023-11-22T07:52:53;21.98;;;14.65;;
68614;SDS011;55593;51.994;5.882;2023-11-22T07:55:22;23.73;;;15.80;;
68614;SDS011;55593;51.994;5.882;2023-11-22T07:57:51;25.58;;;15.50;;
68614;SDS011;55593;51.994;5.882;2023-11-22T08:00:21;29.35;;;16.48;;
68614;SDS011;55593;51.994;5.882;2023-11-22T08:02:53;27.40;;;16.83;;
68614;SDS011;55593;51.994;5.882;2023-11-22T08:05:23;24.83;;;14.48;;
68614;SDS011;55593;51.994;5.882;2023-11-22T08:07:53;29.58;;;19.33;;
68614;SDS011;55593;51.994;5.882;2023-11-22T08:10:23;28.20;;;17.25;;
68614;SDS011;55593;51.994;5.882;2023-11-22T08:12:53;25.77;;;16.95;;
68614;SDS011;55593;51.994;5.882;2023-11-22T08:15:23;29.73;;;17.63;;
68614;SDS011;55593;51.994;5.882;2023-11-22T08:17:55;26.67;;;15.60;;
68614;SDS011;55593;51.994;5.882;2023-11-22T08:20:24;23.58;;;16.35;;
68614;SDS011;55593;51.994;5.882;2023-11-22T08:22:53;28.17;;;18.30;;
68614;SDS011;55593;51.994;5.882;2023-11-22T08:25:23;31.70;;;18.95;;
68614;SDS011;55593;51.994;5.882;2023-11-22T08:27:52;31.10;;;18.70;;
68614;SDS011;55593;51.994;5.882;2023-11-22T08:30:21;31.10;;;18.83;;
68614;SDS011;55593;51.994;5.882;2023-11-22T08:32:51;25.85;;;16.80;;
68614;SDS011;55593;51.994;5.882;2023-11-22T08:35:22;28.60;;;18.23;;
68614;SDS011;55593;51.994;5.882;2023-11-22T08:37:53;25.05;;;17.80;;
68614;SDS011;55593;51.994;5.882;2023-11-22T08:40:23;30.50;;;19.50;;
68614;SDS011;55593;51.994;5.882;2023-11-22T08:42:52;29.05;;;18.95;;
68614;SDS011;55593;51.994;5.882;2023-11-22T08:45:22;27.30;;;17.38;;
68614;SDS011;55593;51.994;5.882;2023-11-22T08:47:51;32.08;;;19.38;;
68614;SDS011;55593;51.994;5.882;2023-11-22T08:50:23;24.75;;;16.75;;
68614;SDS011;55593;51.994;5.882;2023-11-22T08:52:53;25.60;;;16.90;;
68614;SDS011;55593;51.994;5.882;2023-11-22T08:55:24;27.15;;;18.98;;
68614;SDS011;55593;51.994;5.882;2023-11-22T08:57:53;24.05;;;17.40;;
68614;SDS011;55593;51.994;5.882;2023-11-22T09:00:22;26.73;;;18.42;;
68614;SDS011;55593;51.994;5.882;2023-11-22T09:02:54;27.70;;;19.98;;
68614;SDS011;55593;51.994;5.882;2023-11-22T09:05:26;29.38;;;18.52;;
68614;SDS011;55593;51.994;5.882;2023-11-22T09:07:55;28.67;;;19.45;;
68614;SDS011;55593;51.994;5.882;2023-11-22T09:10:24;28.50;;;18.98;;
68614;SDS011;55593;51.994;5.882;2023-11-22T09:12:53;23.95;;;16.63;;
68614;SDS011;55593;51.994;5.882;2023-11-22T09:15:25;28.65;;;18.40;;
68614;SDS011;55593;51.994;5.882;2023-11-22T09:17:55;26.38;;;17.33;;
68614;SDS011;55593;51.994;5.882;2023-11-22T09:20:27;26.30;;;17.45;;
68614;SDS011;55593;51.994;5.882;2023-11-22T09:22:56;29.27;;;19.48;;
68614;SDS011;55593;51.994;5.882;2023-11-22T09:25:26;26.90;;;18.58;;
68614;SDS011;55593;51.994;5.882;2023-11-22T09:27:57;26.85;;;17.58;;
68614;SDS011;55593;51.994;5.882;2023-11-22T09:30:27;29.00;;;18.85;;
68614;SDS011;55593;51.994;5.882;2023-11-22T09:33:05;26.80;;;17.85;;
68614;SDS011;55593;51.994;5.882;2023-11-22T09:35:38;27.70;;;19.70;;
68614;SDS011;55593;51.994;5.882;2023-11-22T09:38:09;26.35;;;17.73;;
68614;SDS011;55593;51.994;5.882;2023-11-22T09:40:39;26.40;;;17.02;;
68614;SDS011;55593;51.994;5.882;2023-11-22T09:43:11;23.67;;;17.15;;
68614;SDS011;55593;51.994;5.882;2023-11-22T09:45:43;24.40;;;16.15;;
68614;SDS011;55593;51.994;5.882;2023-11-22T09:48:14;25.50;;;16.83;;
68614;SDS011;55593;51.994;5.882;2023-11-22T09:50:49;26.52;;;18.20;;
68614;SDS011;55593;51.994;5.882;2023-11-22T09:53:25;25.65;;;18.17;;
68614;SDS011;55593;51.994;5.882;2023-11-22T09:56:01;31.92;;;18.52;;
68614;SDS011;55593;51.994;5.882;2023-11-22T09:58:32;28.25;;;18.42;;
68614;SDS011;55593;51.994;5.882;2023-11-22T10:01:02;27.70;;;18.77;;
68614;SDS011;55593;51.994;5.882;2023-11-22T10:03:33;25.88;;;17.85;;
68614;SDS011;55593;51.994;5.882;2023-11-22T10:06:05;26.65;;;18.33;;
68614;SDS011;55593;51.994;5.882;2023-11-22T10:08:35;26.27;;;18.55;;
68614;SDS011;55593;51.994;5.882;2023-11-22T10:11:04;29.13;;;18.80;;
68614;SDS011;55593;51.994;5.882;2023-11-22T10:13:34;24.85;;;17.30;;
68614;SDS011;55593;51.994;5.882;2023-11-22T10:16:09;25.80;;;16.88;;
68614;SDS011;55593;51.994;5.882;2023-11-22T10:18:41;27.45;;;18.02;;
68614;SDS011;55593;51.994;5.882;2023-11-22T10:21:21;25.73;;;18.00;;
68614;SDS011;55593;51.994;5.882;2023-11-22T10:23:52;25.27;;;17.02;;
68614;SDS011;55593;51.994;5.882;2023-11-22T10:26:22;27.52;;;17.85;;
68614;SDS011;55593;51.994;5.882;2023-11-22T10:28:53;26.45;;;18.00;;
68614;SDS011;55593;51.994;5.882;2023-11-22T10:31:20;22.38;;;16.63;;
68614;SDS011;55593;51.994;5.882;2023-11-22T10:33:50;24.27;;;17.35;;
68614;SDS011;55593;51.994;5.882;2023-11-22T10:36:22;23.00;;;16.23;;
68614;SDS011;55593;51.994;5.882;2023-11-22T10:38:51;26.30;;;17.50;;
68614;SDS011;55593;51.994;5.882;2023-11-22T10:41:20;25.35;;;16.58;;
68614;SDS011;55593;51.994;5.882;2023-11-22T10:43:50;28.10;;;17.75;;
68614;SDS011;55593;51.994;5.882;2023-11-22T10:46:21;25.48;;;17.65;;
68614;SDS011;55593;51.994;5.882;2023-11-22T10:48:55;24.73;;;17.35;;
68614;SDS011;55593;51.994;5.882;2023-11-22T10:51:29;28.67;;;17.90;;
68614;SDS011;55593;51.994;5.882;2023-11-22T10:53:59;23.73;;;17.30;;
68614;SDS011;55593;51.994;5.882;2023-11-22T10:56:30;31.35;;;19.50;;
68614;SDS011;55593;51.994;5.882;2023-11-22T10:59:05;29.15;;;17.58;;
68614;SDS011;55593;51.994;5.882;2023-11-22T11:01:44;24.92;;;17.85;;
68614;SDS011;55593;51.994;5.882;2023-11-22T11:04:23;24.45;;;15.43;;
68614;SDS011;55593;51.994;5.882;2023-11-22T11:06:56;21.13;;;15.27;;
68614;SDS011;55593;51.994;5.882;2023-11-22T11:09:26;22.80;;;15.38;;
68614;SDS011;55593;51.994;5.882;2023-11-22T11:11:58;22.73;;;15.60;;
68614;SDS011;55593;51.994;5.882;2023-11-22T11:14:28;23.75;;;15.23;;
68614;SDS011;55593;51.994;5.882;2023-11-22T11:16:57;25.08;;;16.80;;
68614;SDS011;55593;51.994;5.882;2023-11-22T11:19:27;24.40;;;16.42;;
68614;SDS011;55593;51.994;5.882;2023-11-22T11:21:59;24.55;;;16.63;;
68614;SDS011;55593;51.994;5.882;2023-11-22T11:24:30;22.88;;;15.70;;
68614;SDS011;55593;51.994;5.882;2023-11-22T11:27:07;21.85;;;15.15;;
68614;SDS011;55593;51.994;5.882;2023-11-22T11:29:37;26.90;;;17.95;;
68614;SDS011;55593;51.994;5.882;2023-11-22T11:32:09;22.95;;;16.30;;
68614;SDS011;55593;51.994;5.882;2023-11-22T11:34:46;21.60;;;15.88;;
68614;SDS011;55593;51.994;5.882;2023-11-22T11:37:20;29.40;;;17.48;;
68614;SDS011;55593;51.994;5.882;2023-11-22T11:39:49;23.50;;;15.55;;
68614;SDS011;55593;51.994;5.882;2023-11-22T11:42:18;25.48;;;17.70;;
68614;SDS011;55593;51.994;5.882;2023-11-22T11:44:52;21.48;;;14.93;;
68614;SDS011;55593;51.994;5.882;2023-11-22T11:47:32;23.02;;;15.63;;
68614;SDS011;55593;51.994;5.882;2023-11-22T11:50:02;21.75;;;15.90;;
68614;SDS011;55593;51.994;5.882;2023-11-22T11:52:35;21.65;;;15.05;;
68614;SDS011;55593;51.994;5.882;2023-11-22T11:55:07;22.05;;;14.85;;
68614;SDS011;55593;51.994;5.882;2023-11-22T11:57:36;21.67;;;14.40;;
68614;SDS011;55593;51.994;5.882;2023-11-22T12:00:08;21.27;;;14.55;;
68614;SDS011;55593;51.994;5.882;2023-11-22T12:02:39;24.20;;;15.43;;
68614;SDS011;55593;51.994;5.882;2023-11-22T12:05:09;22.70;;;16.13;;
68614;SDS011;55593;51.994;5.882;2023-11-22T12:07:44;23.63;;;17.20;;
68614;SDS011;55593;51.994;5.882;2023-11-22T12:10:13;22.25;;;15.75;;
68614;SDS011;55593;51.994;5.882;2023-11-22T12:12:43;25.02;;;15.43;;
68614;SDS011;55593;51.994;5.882;2023-11-22T12:15:13;25.63;;;17.45;;
68614;SDS011;55593;51.994;5.882;2023-11-22T12:17:43;25.58;;;17.58;;
68614;SDS011;55593;51.994;5.882;2023-11-22T12:20:13;27.20;;;17.02;;
68614;SDS011;55593;51.994;5.882;2023-11-22T12:22:46;25.00;;;16.25;;
68614;SDS011;55593;51.994;5.882;2023-11-22T12:25:15;27.65;;;17.02;;
68614;SDS011;55593;51.994;5.882;2023-11-22T12:27:45;27.92;;;17.42;;
68614;SDS011;55593;51.994;5.882;2023-11-22T12:30:27;31.35;;;18.88;;
68614;SDS011;55593;51.994;5.882;2023-11-22T12:33:01;27.33;;;17.98;;
68614;SDS011;55593;51.994;5.882;2023-11-22T12:35:31;30.05;;;18.83;;
68614;SDS011;55593;51.994;5.882;2023-11-22T12:38:04;29.15;;;17.80;;
68614;SDS011;55593;51.994;5.882;2023-11-22T12:40:34;29.73;;;17.25;;
68614;SDS011;55593;51.994;5.882;2023-11-22T12:43:04;28.13;;;18.20;;
68614;SDS011;55593;51.994;5.882;2023-11-22T12:45:34;28.48;;;17.73;;
68614;SDS011;55593;51.994;5.882;2023-11-22T12:48:19;28.35;;;18.55;;
68614;SDS011;55593;51.994;5.882;2023-11-22T12:50:49;33.35;;;21.48;;
68614;SDS011;55593;51.994;5.882;2023-11-22T12:53:22;30.70;;;19.80;;
68614;SDS011;55593;51.994;5.882;2023-11-22T12:55:54;31.58;;;19.40;;
68614;SDS011;55593;51.994;5.882;2023-11-22T12:58:24;26.77;;;17.05;;
68614;SDS011;55593;51.994;5.882;2023-11-22T13:00:54;28.67;;;18.05;;
68614;SDS011;55593;51.994;5.882;2023-11-22T13:03:26;31.58;;;18.80;;
68614;SDS011;55593;51.994;5.882;2023-11-22T13:05:57;29.35;;;18.80;;
68614;SDS011;55593;51.994;5.882;2023-11-22T13:08:29;28.70;;;18.35;;
68614;SDS011;55593;51.994;5.882;2023-11-22T13:10:58;27.80;;;18.08;;
68614;SDS011;55593;51.994;5.882;2023-11-22T13:13:28;27.30;;;17.05;;
68614;SDS011;55593;51.994;5.882;2023-11-22T13:15:57;28.52;;;18.88;;
68614;SDS011;55593;51.994;5.882;2023-11-22T13:18:26;27.75;;;17.85;;
68614;SDS011;55593;51.994;5.882;2023-11-22T13:20:56;29.58;;;18.50;;
68614;SDS011;55593;51.994;5.882;2023-11-22T13:23:25;32.13;;;20.20;;
68614;SDS011;55593;51.994;5.882;2023-11-22T13:25:57;34.92;;;19.88;;
68614;SDS011;55593;51.994;5.882;2023-11-22T13:28:26;31.52;;;20.02;;
68614;SDS011;55593;51.994;5.882;2023-11-22T13:30:55;29.85;;;19.35;;
68614;SDS011;55593;51.994;5.882;2023-11-22T13:33:25;31.58;;;19.38;;
68614;SDS011;55593;51.994;5.882;2023-11-22T13:35:54;30.45;;;18.40;;
68614;SDS011;55593;51.994;5.882;2023-11-22T13:38:24;32.83;;;20.60;;
68614;SDS011;55593;51.994;5.882;2023-11-22T13:40:53;33.42;;;20.42;;
68614;SDS011;55593;51.994;5.882;2023-11-22T13:43:25;29.75;;;19.73;;
68614;SDS011;55593;51.994;5.882;2023-11-22T13:45:55;33.80;;;21.58;;
68614;SDS011;55593;51.994;5.882;2023-11-22T13:48:24;34.55;;;21.20;;
68614;SDS011;55593;51.994;5.882;2023-11-22T13:50:53;33.45;;;19.70;;
68614;SDS011;55593;51.994;5.882;2023-11-22T13:53:25;36.20;;;21.08;;
68614;SDS011;55593;51.994;5.882;2023-11-22T13:55:59;34.45;;;20.45;;
68614;SDS011;55593;51.994;5.882;2023-11-22T13:58:36;34.80;;;20.52;;
68614;SDS011;55593;51.994;5.882;2023-11-22T14:01:05;37.38;;;23.35;;
68614;SDS011;55593;51.994;5.882;2023-11-22T14:03:39;34.85;;;20.75;;
68614;SDS011;55593;51.994;5.882;2023-11-22T14:06:09;42.40;;;23.13;;
68614;SDS011;55593;51.994;5.882;2023-11-22T14:08:39;38.15;;;21.40;;
68614;SDS011;55593;51.994;5.882;2023-11-22T14:11:09;39.25;;;21.80;;
68614;SDS011;55593;51.994;5.882;2023-11-22T14:13:41;37.80;;;21.90;;
68614;SDS011;55593;51.994;5.882;2023-11-22T14:16:10;40.63;;;22.65;;
68614;SDS011;55593;51.994;5.882;2023-11-22T14:18:39;43.63;;;23.75;;
68614;SDS011;55593;51.994;5.882;2023-11-22T14:21:09;45.35;;;23.13;;
68614;SDS011;55593;51.994;5.882;2023-11-22T14:23:38;41.55;;;24.23;;
68614;SDS011;55593;51.994;5.882;2023-11-22T14:26:07;46.03;;;23.05;;
68614;SDS011;55593;51.994;5.882;2023-11-22T14:28:36;45.60;;;24.48;;
68614;SDS011;55593;51.994;5.882;2023-11-22T14:31:08;48.70;;;24.65;;
68614;SDS011;55593;51.994;5.882;2023-11-22T14:33:38;47.45;;;26.10;;
68614;SDS011;55593;51.994;5.882;2023-11-22T14:36:07;52.55;;;26.17;;
68614;SDS011;55593;51.994;5.882;2023-11-22T14:38:36;50.00;;;27.27;;